createdAt,value
2019-05-17T00:00:07.991Z,96.10
2019-05-17T00:02:37.398Z,96.30
2019-05-17T00:05:07.092Z,96.40
2019-05-17T00:07:36.947Z,96.00
2019-05-17T00:10:06.970Z,96.30
2019-05-17T00:12:36.819Z,96.30
2019-05-17T00:15:08.111Z,96.60
2019-05-17T00:17:37.650Z,96.90
2019-05-17T00:20:08.147Z,96.80
2019-05-17T00:22:36.810Z,97.00
2019-05-17T00:25:07.471Z,96.80
2019-05-17T00:27:36.883Z,96.80
2019-05-17T00:30:08.411Z,96.90
2019-05-17T00:32:37.062Z,97.00
2019-05-17T00:35:07.294Z,97.20
2019-05-17T00:37:37.238Z,97.20
2019-05-17T00:40:07.662Z,97.10
2019-05-17T00:42:37.213Z,97.30
2019-05-17T00:45:07.490Z,98.60
2019-05-17T00:47:37.528Z,99.30
2019-05-17T00:50:07.802Z,99.70
2019-05-17T00:52:36.796Z,99.60
2019-05-17T00:55:08.899Z,99.60
2019-05-17T00:57:37.310Z,99.50
2019-05-17T01:00:09.054Z,99.30
2019-05-17T01:02:37.450Z,99.50
2019-05-17T01:05:08.083Z,99.60
2019-05-17T01:07:37.613Z,99.80
2019-05-17T01:10:08.141Z,99.90
2019-05-17T01:12:36.804Z,99.90
2019-05-17T01:15:07.616Z,99.90
2019-05-17T01:17:36.594Z,99.90
2019-05-17T01:20:09.036Z,99.90
2019-05-17T01:22:37.439Z,99.90
2019-05-17T01:25:07.388Z,99.90
2019-05-17T01:27:37.983Z,99.90
2019-05-17T01:30:07.998Z,99.90
2019-05-17T01:32:37.364Z,99.90
2019-05-17T01:35:07.475Z,99.90
2019-05-17T01:37:36.916Z,99.90
2019-05-17T01:40:07.391Z,99.90
2019-05-17T01:42:37.475Z,99.90
2019-05-17T01:45:07.367Z,99.90
2019-05-17T01:47:36.805Z,99.90
2019-05-17T01:50:08.795Z,99.90
2019-05-17T01:52:37.266Z,99.90
2019-05-17T01:55:07.579Z,99.90
2019-05-17T01:57:36.999Z,99.90
2019-05-17T02:00:12.499Z,99.90
2019-05-17T02:02:47.093Z,99.90
2019-05-17T02:05:17.294Z,99.90
2019-05-17T02:07:46.594Z,99.90
2019-05-17T02:10:16.760Z,99.90
2019-05-17T02:12:48.777Z,99.90
2019-05-17T02:15:16.648Z,99.90
2019-05-17T02:17:46.881Z,99.90
2019-05-17T02:20:17.011Z,99.90
2019-05-17T02:22:47.326Z,99.90
2019-05-17T02:25:17.627Z,99.90
2019-05-17T02:27:46.031Z,99.90
2019-05-17T02:30:15.194Z,99.90
2019-05-17T02:32:44.739Z,99.90
2019-05-17T02:35:14.652Z,99.90
2019-05-17T02:37:43.832Z,99.90
2019-05-17T02:40:14.704Z,99.90
2019-05-17T02:42:43.446Z,99.90
2019-05-17T02:45:13.319Z,99.90
2019-05-17T02:47:43.729Z,99.90
2019-05-17T02:50:13.992Z,99.90
2019-05-17T02:52:43.809Z,99.90
2019-05-17T02:55:13.247Z,99.90
2019-05-17T02:57:43.426Z,99.90
2019-05-17T03:00:13.703Z,99.90
2019-05-17T03:02:43.377Z,99.90
2019-05-17T03:05:13.029Z,99.90
2019-05-17T03:07:44.068Z,99.90
2019-05-17T03:10:23.014Z,99.90
2019-05-17T03:12:44.517Z,99.90
2019-05-17T03:15:13.239Z,99.90
2019-05-17T03:17:43.347Z,99.90
2019-05-17T03:20:13.173Z,99.90
2019-05-17T03:22:43.989Z,99.90
2019-05-17T03:25:13.699Z,99.90
2019-05-17T03:27:42.983Z,99.90
2019-05-17T03:30:17.030Z,99.90
2019-05-17T03:32:46.901Z,99.90
2019-05-17T03:35:16.796Z,99.90
2019-05-17T03:37:43.971Z,99.90
2019-05-17T03:40:24.939Z,99.90
2019-05-17T03:42:43.552Z,99.90
2019-05-17T03:45:13.710Z,99.90
2019-05-17T03:47:44.575Z,99.90
2019-05-17T03:50:13.985Z,99.90
2019-05-17T03:52:44.546Z,99.90
2019-05-17T03:55:13.516Z,99.90
2019-05-17T03:57:44.008Z,99.90
2019-05-17T04:00:13.994Z,99.90
2019-05-17T04:02:44.499Z,99.90
2019-05-17T04:05:14.512Z,99.90
2019-05-17T04:07:43.748Z,99.90
2019-05-17T04:10:15.251Z,99.90
2019-05-17T04:12:44.254Z,99.90
2019-05-17T04:15:13.759Z,99.90
2019-05-17T04:17:43.810Z,99.90
2019-05-17T04:20:13.918Z,99.90
2019-05-17T04:22:44.340Z,99.90
2019-05-17T04:25:13.724Z,99.90
2019-05-17T04:27:43.642Z,99.90
2019-05-17T04:30:13.251Z,99.90
2019-05-17T04:32:44.370Z,99.90
2019-05-17T04:35:13.860Z,99.90
2019-05-17T04:37:44.818Z,99.90
2019-05-17T04:40:14.272Z,99.90
2019-05-17T04:42:44.285Z,99.90
2019-05-17T04:45:13.456Z,99.90
2019-05-17T04:47:44.573Z,99.90
2019-05-17T04:50:14.186Z,99.90
2019-05-17T04:52:43.459Z,99.90
2019-05-17T04:55:13.707Z,99.90
2019-05-17T04:57:43.739Z,99.90
2019-05-17T05:00:13.379Z,99.90
2019-05-17T05:02:43.757Z,99.90
2019-05-17T05:05:16.820Z,99.90
2019-05-17T05:07:45.223Z,99.90
2019-05-17T05:10:14.481Z,99.90
2019-05-17T05:12:43.994Z,99.90
2019-05-17T05:15:16.135Z,99.90
2019-05-17T05:17:44.557Z,99.90
2019-05-17T05:20:13.768Z,99.90
2019-05-17T05:22:42.933Z,99.90
2019-05-17T05:25:12.843Z,99.90
2019-05-17T05:27:42.767Z,99.90
2019-05-17T05:30:12.192Z,99.90
2019-05-17T05:32:42.650Z,99.90
2019-05-17T05:35:12.429Z,99.90
2019-05-17T05:37:42.344Z,99.90
2019-05-17T05:40:12.798Z,99.90
2019-05-17T05:42:42.611Z,99.90
2019-05-17T05:45:12.809Z,99.90
2019-05-17T05:47:42.478Z,99.90
2019-05-17T05:50:12.526Z,99.90
2019-05-17T05:52:42.392Z,99.90
2019-05-17T05:55:12.414Z,99.90
2019-05-17T05:57:42.075Z,99.90
2019-05-17T06:00:13.042Z,99.90
2019-05-17T06:02:42.062Z,99.90
2019-05-17T06:05:14.666Z,99.90
2019-05-17T06:07:41.794Z,99.90
2019-05-17T06:10:12.879Z,99.90
2019-05-17T06:12:43.331Z,99.90
2019-05-17T06:15:12.519Z,99.90
2019-05-17T06:17:42.775Z,99.90
2019-05-17T06:20:12.080Z,99.90
2019-05-17T06:22:42.872Z,99.90
2019-05-17T06:25:15.073Z,99.90
2019-05-17T06:27:41.621Z,99.90
2019-05-17T06:30:12.661Z,99.90
2019-05-17T06:32:43.176Z,99.90
2019-05-17T06:35:12.537Z,99.90
2019-05-17T06:37:42.269Z,99.90
2019-05-17T06:40:12.949Z,99.90
2019-05-17T06:42:45.301Z,99.90
2019-05-17T06:45:13.874Z,99.90
2019-05-17T06:47:42.818Z,99.90
2019-05-17T06:50:14.248Z,99.90
2019-05-17T06:52:43.378Z,99.90
2019-05-17T06:55:13.687Z,99.90
2019-05-17T06:57:43.386Z,99.90
2019-05-17T07:00:19.210Z,99.90
2019-05-17T07:02:42.468Z,99.90
2019-05-17T07:05:12.555Z,99.90
2019-05-17T07:07:40.971Z,99.90
2019-05-17T07:10:11.147Z,99.90
2019-05-17T07:12:54.600Z,99.90
2019-05-17T07:15:10.819Z,99.90
2019-05-17T07:17:40.030Z,99.90
2019-05-17T07:20:10.301Z,99.90
2019-05-17T07:22:40.813Z,99.90
2019-05-17T07:25:10.772Z,99.80
2019-05-17T07:27:44.832Z,99.90
2019-05-17T07:30:10.567Z,97.20
2019-05-17T07:32:40.603Z,96.50
2019-05-17T07:35:10.669Z,98.40
2019-05-17T07:37:39.960Z,97.60
2019-05-17T07:40:10.812Z,97.30
2019-05-17T07:42:39.741Z,95.20
2019-05-17T07:45:10.176Z,95.80
2019-05-17T07:47:40.370Z,94.70
2019-05-17T07:50:11.479Z,93.90
2019-05-17T07:52:40.172Z,93.90
2019-05-17T07:55:10.999Z,94.50
2019-05-17T07:57:40.959Z,94.30
2019-05-17T08:00:10.501Z,93.20
2019-05-17T08:02:40.200Z,89.00
2019-05-17T08:05:10.521Z,91.10
2019-05-17T08:07:40.513Z,91.50
2019-05-17T08:10:10.895Z,88.10
2019-05-17T08:12:40.589Z,87.80
2019-05-17T08:15:11.120Z,85.90
2019-05-17T08:17:39.972Z,86.20
2019-05-17T08:20:10.250Z,85.60
2019-05-17T08:22:39.850Z,82.90
2019-05-17T08:25:10.235Z,81.20
2019-05-17T08:27:40.661Z,80.90
2019-05-17T08:30:10.635Z,82.00
2019-05-17T08:32:40.853Z,78.20
2019-05-17T08:35:11.296Z,79.30
2019-05-17T08:37:42.368Z,74.20
2019-05-17T08:40:10.854Z,76.70
2019-05-17T08:42:40.708Z,70.50
2019-05-17T08:45:09.800Z,69.90
2019-05-17T08:47:39.741Z,70.50
2019-05-17T08:50:11.186Z,73.60
2019-05-17T08:52:40.295Z,74.20
2019-05-17T08:55:09.892Z,73.40
2019-05-17T08:57:40.129Z,74.30
2019-05-17T09:00:10.683Z,76.30
2019-05-17T09:02:40.956Z,74.30
2019-05-17T09:05:10.069Z,76.40
2019-05-17T09:07:40.140Z,74.50
2019-05-17T09:10:10.166Z,70.30
2019-05-17T09:12:40.960Z,68.20
2019-05-17T09:15:10.023Z,64.50
2019-05-17T09:17:39.582Z,67.20
2019-05-17T09:20:10.670Z,65.10
2019-05-17T09:22:39.663Z,60.20
2019-05-17T09:25:13.548Z,57.70
2019-05-17T09:27:39.937Z,55.60
2019-05-17T09:30:09.607Z,58.40
2019-05-17T09:32:40.493Z,59.50
2019-05-17T09:35:10.078Z,56.90
2019-05-17T09:37:41.406Z,58.60
2019-05-17T09:40:09.588Z,57.20
2019-05-17T09:42:40.815Z,57.90
2019-05-17T09:45:09.905Z,57.30
2019-05-17T09:47:39.643Z,57.10
2019-05-17T09:50:09.896Z,53.20
2019-05-17T09:52:40.642Z,55.80
2019-05-17T09:55:09.949Z,55.10
2019-05-17T09:57:40.967Z,52.80
2019-05-17T10:00:10.063Z,52.40
2019-05-17T10:02:40.130Z,52.80
2019-05-17T10:05:10.648Z,54.90
2019-05-17T10:07:40.251Z,54.50
2019-05-17T10:10:10.663Z,54.30
2019-05-17T10:12:40.344Z,57.60
2019-05-17T10:15:09.974Z,57.10
2019-05-17T10:17:38.749Z,57.60
2019-05-17T10:20:07.456Z,58.00
2019-05-17T10:22:35.929Z,57.20
2019-05-17T10:25:06.153Z,56.80
2019-05-17T10:27:34.535Z,57.60
2019-05-17T10:30:04.184Z,57.40
2019-05-17T10:32:32.575Z,58.30
2019-05-17T10:35:00.985Z,57.90
2019-05-17T10:37:30.253Z,57.60
2019-05-17T10:39:58.870Z,55.90
2019-05-17T10:42:27.266Z,54.60
2019-05-17T10:44:55.682Z,54.30
2019-05-17T10:47:24.083Z,54.40
2019-05-17T10:49:52.483Z,53.50
2019-05-17T10:52:20.963Z,53.20
2019-05-17T10:54:49.363Z,53.60
2019-05-17T10:57:19.467Z,53.90
2019-05-17T10:59:49.765Z,56.10
2019-05-17T11:02:19.680Z,56.90
2019-05-17T11:04:50.496Z,54.40
2019-05-17T11:07:19.945Z,54.10
2019-05-17T11:09:50.854Z,52.80
2019-05-17T11:12:18.698Z,53.80
2019-05-17T11:14:52.511Z,54.50
2019-05-17T11:17:17.224Z,53.40
2019-05-17T11:19:45.623Z,53.30
2019-05-17T11:22:14.107Z,53.40
2019-05-17T11:24:42.603Z,54.90
2019-05-17T11:27:10.998Z,54.30
2019-05-17T11:29:39.422Z,54.60
2019-05-17T11:32:07.815Z,54.90
2019-05-17T11:34:36.227Z,55.40
2019-05-17T11:37:04.680Z,56.60
2019-05-17T11:39:33.071Z,56.20
2019-05-17T11:42:01.486Z,56.60
2019-05-17T11:44:29.874Z,57.00
2019-05-17T11:46:58.284Z,55.00
2019-05-17T11:49:26.672Z,55.90
2019-05-17T11:51:55.086Z,56.40
2019-05-17T11:54:23.494Z,56.10
2019-05-17T11:56:51.904Z,55.90
2019-05-17T11:59:20.307Z,56.20
2019-05-17T12:01:48.717Z,55.50
2019-05-17T12:04:17.144Z,56.20
2019-05-17T12:06:45.610Z,56.70
2019-05-17T12:09:13.998Z,55.40
2019-05-17T12:11:42.411Z,53.70
2019-05-17T12:14:10.799Z,54.20
2019-05-17T12:16:39.211Z,53.30
2019-05-17T12:19:07.606Z,52.40
2019-05-17T12:21:36.020Z,51.50
2019-05-17T12:24:04.561Z,51.60
2019-05-17T12:26:32.967Z,51.70
2019-05-17T12:29:01.363Z,51.40
2019-05-17T12:31:29.762Z,50.70
2019-05-17T12:33:58.163Z,51.00
2019-05-17T12:36:26.644Z,52.50
2019-05-17T12:38:55.045Z,52.80
2019-05-17T12:41:23.470Z,52.60
2019-05-17T12:43:51.879Z,53.20
2019-05-17T12:46:20.351Z,52.50
2019-05-17T12:48:48.757Z,50.80
2019-05-17T12:51:17.146Z,49.30
2019-05-17T12:53:45.552Z,49.30
2019-05-17T12:56:13.955Z,50.40
2019-05-17T12:58:42.363Z,50.60
2019-05-17T13:01:10.765Z,51.90
2019-05-17T13:03:39.162Z,51.40
2019-05-17T13:06:07.579Z,52.60
2019-05-17T13:08:35.983Z,50.40
2019-05-17T13:11:04.544Z,50.70
2019-05-17T13:13:33.007Z,50.50
2019-05-17T13:16:16.753Z,48.90
2019-05-17T13:18:31.532Z,49.20
2019-05-17T13:20:59.919Z,49.10
2019-05-17T13:23:28.328Z,48.40
2019-05-17T13:25:56.724Z,49.90
2019-05-17T13:28:25.126Z,48.10
2019-05-17T13:30:53.510Z,48.10
2019-05-17T13:33:21.927Z,48.40
2019-05-17T13:35:50.388Z,49.60
2019-05-17T13:38:18.799Z,50.10
2019-05-17T13:40:47.225Z,49.20
2019-05-17T13:43:15.736Z,49.10
2019-05-17T13:45:44.817Z,50.00
2019-05-17T13:48:13.550Z,50.30
2019-05-17T13:50:42.092Z,49.90
2019-05-17T13:53:10.547Z,49.80
2019-05-17T13:55:38.948Z,50.30
2019-05-17T13:58:07.363Z,51.10
2019-05-17T14:00:35.764Z,49.70
2019-05-17T14:03:04.403Z,49.70
2019-05-17T14:05:32.856Z,48.40
2019-05-17T14:08:01.228Z,48.60
2019-05-17T14:10:32.080Z,48.80
2019-05-17T14:12:59.743Z,48.90
2019-05-17T14:15:28.151Z,51.20
2019-05-17T14:17:56.619Z,51.30
2019-05-17T14:20:25.071Z,51.60
2019-05-17T14:22:53.506Z,51.60
2019-05-17T14:25:21.921Z,51.30
2019-05-17T14:27:50.347Z,51.10
2019-05-17T14:30:18.900Z,49.50
2019-05-17T14:32:47.290Z,49.20
2019-05-17T14:35:15.919Z,47.90
2019-05-17T14:37:44.394Z,47.40
2019-05-17T14:40:13.143Z,47.90
2019-05-17T14:42:41.547Z,49.00
2019-05-17T14:45:10.387Z,50.10
2019-05-17T14:47:38.783Z,51.30
2019-05-17T14:50:07.522Z,50.60
2019-05-17T14:52:35.934Z,50.60
2019-05-17T14:55:04.585Z,49.90
2019-05-17T14:57:32.976Z,50.50
2019-05-17T15:00:01.403Z,50.10
2019-05-17T15:02:29.787Z,49.40
2019-05-17T15:04:58.201Z,49.70
2019-05-17T15:07:26.590Z,49.70
2019-05-17T15:09:55.110Z,49.40
2019-05-17T15:12:28.249Z,50.10
2019-05-17T15:14:53.644Z,49.80
2019-05-17T15:17:22.040Z,48.30
2019-05-17T15:19:51.387Z,49.10
2019-05-17T15:22:20.034Z,48.00
2019-05-17T15:24:48.436Z,47.80
2019-05-17T15:27:16.836Z,46.70
2019-05-17T15:29:45.239Z,46.80
2019-05-17T15:32:13.639Z,47.40
2019-05-17T15:34:42.035Z,46.00
2019-05-17T15:37:10.497Z,48.50
2019-05-17T15:39:38.922Z,50.20
2019-05-17T15:42:07.345Z,50.50
2019-05-17T15:44:35.739Z,51.00
2019-05-17T15:47:04.214Z,51.00
2019-05-17T15:49:32.609Z,51.20
2019-05-17T15:52:01.012Z,51.70
2019-05-17T15:54:29.411Z,52.10
2019-05-17T15:56:57.810Z,52.10
2019-05-17T15:59:26.199Z,52.50
2019-05-17T16:01:54.635Z,52.10
2019-05-17T16:04:23.031Z,51.80
2019-05-17T16:06:51.435Z,51.90
2019-05-17T16:09:19.832Z,52.00
2019-05-17T16:11:48.240Z,52.30
2019-05-17T16:14:16.636Z,52.80
2019-05-17T16:16:45.055Z,53.10
2019-05-17T16:19:13.443Z,53.40
2019-05-17T16:21:41.846Z,53.50
2019-05-17T16:24:10.307Z,53.30
2019-05-17T16:26:38.717Z,52.70
2019-05-17T16:29:07.102Z,52.90
2019-05-17T16:31:35.515Z,53.10
2019-05-17T16:34:03.908Z,52.80
2019-05-17T16:36:32.315Z,52.70
2019-05-17T16:39:00.730Z,52.20
2019-05-17T16:41:29.165Z,52.40
2019-05-17T16:43:57.598Z,52.70
2019-05-17T16:46:26.078Z,53.20
2019-05-17T16:48:54.480Z,53.50
2019-05-17T16:51:22.876Z,53.90
2019-05-17T16:53:51.284Z,54.20
2019-05-17T16:56:19.670Z,54.50
2019-05-17T16:58:48.087Z,54.20
2019-05-17T17:01:16.521Z,54.90
2019-05-17T17:03:44.994Z,55.00
2019-05-17T17:06:13.431Z,54.80
2019-05-17T17:08:42.270Z,54.50
2019-05-17T17:11:10.671Z,54.80
2019-05-17T17:13:39.090Z,54.80
2019-05-17T17:16:07.493Z,55.80
2019-05-17T17:18:35.900Z,55.70
2019-05-17T17:21:04.433Z,55.30
2019-05-17T17:23:32.836Z,55.30
2019-05-17T17:26:01.219Z,55.30
2019-05-17T17:28:29.627Z,55.40
2019-05-17T17:30:58.027Z,55.50
2019-05-17T17:33:26.637Z,55.80
2019-05-17T17:35:55.086Z,56.20
2019-05-17T17:38:23.576Z,56.10
2019-05-17T17:40:51.977Z,56.30
2019-05-17T17:43:20.378Z,56.00
2019-05-17T17:45:48.820Z,56.40
2019-05-17T17:48:17.328Z,56.60
2019-05-17T17:50:46.497Z,56.90
2019-05-17T17:53:14.882Z,57.30
2019-05-17T17:55:43.296Z,57.80
2019-05-17T17:58:11.721Z,58.70
2019-05-17T18:00:40.215Z,59.00
2019-05-17T18:03:11.140Z,59.40
2019-05-17T18:05:38.755Z,59.50
2019-05-17T18:08:07.151Z,59.10
2019-05-17T18:10:37.404Z,59.40
2019-05-17T18:13:05.794Z,60.20
2019-05-17T18:15:44.937Z,60.00
2019-05-17T18:18:16.498Z,59.60
2019-05-17T18:20:45.075Z,58.80
2019-05-17T18:23:15.017Z,59.20
2019-05-17T18:25:43.414Z,59.20
2019-05-17T18:28:13.995Z,59.20
2019-05-17T18:30:44.171Z,59.40
2019-05-17T18:33:16.914Z,60.10
2019-05-17T18:35:45.411Z,60.60
2019-05-17T18:38:17.079Z,60.70
2019-05-17T18:40:45.532Z,61.00
2019-05-17T18:43:15.631Z,61.20
2019-05-17T18:45:44.100Z,64.10
2019-05-17T18:48:12.499Z,68.90
2019-05-17T18:50:42.688Z,72.60
2019-05-17T18:53:17.317Z,81.10
2019-05-17T18:55:48.599Z,94.10
2019-05-17T18:58:17.011Z,98.20
2019-05-17T19:00:45.868Z,98.80
2019-05-17T19:03:14.259Z,99.80
2019-05-17T19:05:45.293Z,98.20
2019-05-17T19:08:13.118Z,97.40
2019-05-17T19:10:43.237Z,96.50
2019-05-17T19:13:11.638Z,99.10
2019-05-17T19:15:40.047Z,98.10
2019-05-17T19:18:08.453Z,97.60
2019-05-17T19:20:37.052Z,98.00
2019-05-17T19:23:05.451Z,97.90
2019-05-17T19:25:34.040Z,98.60
2019-05-17T19:28:02.518Z,98.50
2019-05-17T19:30:32.636Z,98.00
2019-05-17T19:33:01.047Z,97.60
2019-05-17T19:35:32.491Z,96.80
2019-05-17T19:38:00.887Z,96.30
2019-05-17T19:40:29.299Z,96.60
2019-05-17T19:42:57.691Z,96.30
2019-05-17T19:45:27.867Z,95.80
2019-05-17T19:47:56.281Z,96.30
2019-05-17T19:50:24.701Z,96.30
2019-05-17T19:52:53.095Z,96.10
2019-05-17T19:55:22.269Z,96.90
2019-05-17T19:57:50.732Z,97.20
2019-05-17T20:00:19.468Z,96.80
2019-05-17T20:02:47.882Z,96.90
2019-05-17T20:05:18.019Z,97.30
2019-05-17T20:07:46.767Z,96.60
2019-05-17T20:10:15.629Z,97.20
2019-05-17T20:12:44.027Z,98.00
2019-05-17T20:15:17.695Z,98.20
2019-05-17T20:17:45.866Z,99.00
2019-05-17T20:20:16.068Z,98.80
2019-05-17T20:22:44.614Z,99.40
2019-05-17T20:25:14.437Z,99.40
2019-05-17T20:27:42.876Z,99.30
2019-05-17T20:30:11.815Z,99.70
2019-05-17T20:32:40.240Z,99.90
2019-05-17T20:35:09.076Z,99.90
2019-05-17T20:37:37.502Z,99.90
2019-05-17T20:40:06.826Z,99.90
2019-05-17T20:42:35.384Z,99.90
2019-05-17T20:45:05.620Z,99.90
2019-05-17T20:47:34.047Z,99.90
2019-05-17T20:50:02.518Z,99.90
2019-05-17T20:52:30.990Z,99.90
2019-05-17T20:54:59.391Z,99.90
2019-05-17T20:57:27.799Z,99.90
2019-05-17T20:59:56.199Z,99.90
2019-05-17T21:02:24.683Z,99.90
2019-05-17T21:04:53.070Z,99.90
2019-05-17T21:07:21.493Z,99.90
2019-05-17T21:09:49.968Z,99.90
2019-05-17T21:12:18.383Z,99.90
2019-05-17T21:14:46.783Z,99.90
2019-05-17T21:17:16.201Z,99.90
2019-05-17T21:19:44.667Z,99.90
2019-05-17T21:22:13.087Z,99.90
2019-05-17T21:24:41.502Z,99.90
2019-05-17T21:27:09.934Z,99.90
2019-05-17T21:29:38.337Z,99.90
2019-05-17T21:32:06.816Z,99.90
2019-05-17T21:34:35.219Z,99.90
2019-05-17T21:37:03.644Z,99.90
2019-05-17T21:39:32.137Z,99.90
2019-05-17T21:42:00.610Z,99.90
2019-05-17T21:44:29.007Z,99.90
2019-05-17T21:47:04.584Z,99.90
2019-05-17T21:49:27.543Z,99.90
2019-05-17T21:51:55.959Z,99.90
2019-05-17T21:54:24.551Z,99.90
2019-05-17T21:56:52.966Z,99.90
2019-05-17T21:59:21.401Z,99.90
2019-05-17T22:01:50.103Z,99.90
2019-05-17T22:04:18.520Z,99.90
2019-05-17T22:06:46.923Z,99.90
2019-05-17T22:09:15.372Z,99.90
2019-05-17T22:11:45.406Z,99.90
2019-05-17T22:14:15.361Z,99.90
2019-05-17T22:16:43.759Z,99.90
2019-05-17T22:19:12.191Z,99.90
2019-05-17T22:21:40.638Z,99.90
2019-05-17T22:24:09.118Z,99.90
2019-05-17T22:26:37.591Z,99.90
2019-05-17T22:29:06.001Z,99.90
2019-05-17T22:31:34.432Z,99.90
2019-05-17T22:34:02.845Z,99.90
2019-05-17T22:36:31.247Z,99.90
2019-05-17T22:39:01.506Z,99.90
2019-05-17T22:41:29.979Z,99.90
2019-05-17T22:43:58.397Z,99.90
2019-05-17T22:46:35.478Z,99.90
2019-05-17T22:48:56.925Z,99.90
2019-05-17T22:51:25.354Z,99.90
2019-05-17T22:53:53.771Z,99.90
2019-05-17T22:56:22.186Z,99.90
2019-05-17T22:58:50.607Z,99.90
2019-05-17T23:01:19.003Z,99.90
2019-05-17T23:03:47.434Z,99.90
2019-05-17T23:06:15.836Z,99.90
2019-05-17T23:08:45.895Z,99.90
2019-05-17T23:11:14.298Z,99.90
2019-05-17T23:13:42.707Z,99.90
2019-05-17T23:16:12.685Z,99.90
2019-05-17T23:18:42.722Z,99.90
2019-05-17T23:21:11.149Z,99.90
2019-05-17T23:23:39.531Z,99.90
2019-05-17T23:26:07.938Z,99.90
2019-05-17T23:28:36.346Z,99.90
2019-05-17T23:31:04.758Z,99.90
2019-05-17T23:33:33.168Z,99.90
2019-05-17T23:36:01.575Z,99.90
2019-05-17T23:38:29.967Z,99.90
2019-05-17T23:40:58.378Z,99.90
2019-05-17T23:43:26.807Z,99.90
2019-05-17T23:45:55.223Z,99.90
2019-05-17T23:48:23.699Z,99.90
2019-05-17T23:50:52.127Z,99.90
2019-05-17T23:53:20.514Z,99.90
2019-05-17T23:55:48.935Z,99.90
2019-05-17T23:58:17.334Z,99.90
